sensor_id;sensor_type;location;lat;lon;timestamp;temperature;humidity
25582;DHT22;13462;50.764;4.332;2023-04-24T00:00:54;9.00;99.90
25582;DHT22;13462;50.764;4.332;2023-04-24T00:03:24;9.10;99.90
25582;DHT22;13462;50.764;4.332;2023-04-24T00:05:50;9.10;99.90
25582;DHT22;13462;50.764;4.332;2023-04-24T00:08:16;9.10;99.90
25582;DHT22;13462;50.764;4.332;2023-04-24T00:10:42;9.10;99.90
25582;DHT22;13462;50.764;4.332;2023-04-24T00:13:07;9.10;99.90
25582;DHT22;13462;50.764;4.332;2023-04-24T00:15:33;9.10;99.90
25582;DHT22;13462;50.764;4.332;2023-04-24T00:17:58;9.10;99.90
25582;DHT22;13462;50.764;4.332;2023-04-24T00:20:24;9.10;99.90
25582;DHT22;13462;50.764;4.332;2023-04-24T00:22:49;9.00;99.90
25582;DHT22;13462;50.764;4.332;2023-04-24T00:25:15;9.00;99.90
25582;DHT22;13462;50.764;4.332;2023-04-24T00:27:40;9.00;99.90
25582;DHT22;13462;50.764;4.332;2023-04-24T00:30:06;9.10;99.90
25582;DHT22;13462;50.764;4.332;2023-04-24T00:32:32;9.00;99.90
25582;DHT22;13462;50.764;4.332;2023-04-24T00:34:57;8.90;99.90
25582;DHT22;13462;50.764;4.332;2023-04-24T00:37:23;8.90;99.90
25582;DHT22;13462;50.764;4.332;2023-04-24T00:39:48;8.90;99.90
25582;DHT22;13462;50.764;4.332;2023-04-24T00:42:14;8.90;99.90
25582;DHT22;13462;50.764;4.332;2023-04-24T00:44:39;9.00;99.90
25582;DHT22;13462;50.764;4.332;2023-04-24T00:47:05;9.00;99.90
25582;DHT22;13462;50.764;4.332;2023-04-24T00:49:30;9.00;99.90
25582;DHT22;13462;50.764;4.332;2023-04-24T00:51:56;9.00;99.90
25582;DHT22;13462;50.764;4.332;2023-04-24T00:54:22;9.00;99.90
25582;DHT22;13462;50.764;4.332;2023-04-24T00:56:47;8.90;99.90
25582;DHT22;13462;50.764;4.332;2023-04-24T00:59:14;8.90;99.90
25582;DHT22;13462;50.764;4.332;2023-04-24T01:01:41;8.80;99.90
25582;DHT22;13462;50.764;4.332;2023-04-24T01:04:07;8.70;99.90
25582;DHT22;13462;50.764;4.332;2023-04-24T01:06:33;8.60;99.90
25582;DHT22;13462;50.764;4.332;2023-04-24T01:08:59;8.60;99.90
25582;DHT22;13462;50.764;4.332;2023-04-24T01:11:25;8.60;99.90
25582;DHT22;13462;50.764;4.332;2023-04-24T01:13:51;8.50;99.90
25582;DHT22;13462;50.764;4.332;2023-04-24T01:16:17;8.50;99.90
25582;DHT22;13462;50.764;4.332;2023-04-24T01:18:43;8.50;99.90
25582;DHT22;13462;50.764;4.332;2023-04-24T01:21:09;8.50;99.90
25582;DHT22;13462;50.764;4.332;2023-04-24T01:23:34;8.50;99.90
25582;DHT22;13462;50.764;4.332;2023-04-24T01:26:00;8.40;99.90
25582;DHT22;13462;50.764;4.332;2023-04-24T01:28:25;8.40;99.90
25582;DHT22;13462;50.764;4.332;2023-04-24T01:30:51;8.30;99.90
25582;DHT22;13462;50.764;4.332;2023-04-24T01:33:17;8.30;99.90
25582;DHT22;13462;50.764;4.332;2023-04-24T01:35:43;8.30;99.90
25582;DHT22;13462;50.764;4.332;2023-04-24T01:38:08;8.30;99.90
25582;DHT22;13462;50.764;4.332;2023-04-24T01:40:34;8.20;99.90
25582;DHT22;13462;50.764;4.332;2023-04-24T01:43:00;8.20;99.90
25582;DHT22;13462;50.764;4.332;2023-04-24T01:45:26;8.20;99.90
25582;DHT22;13462;50.764;4.332;2023-04-24T01:47:51;8.20;99.90
25582;DHT22;13462;50.764;4.332;2023-04-24T01:50:17;8.20;99.90
25582;DHT22;13462;50.764;4.332;2023-04-24T01:52:43;8.20;99.90
25582;DHT22;13462;50.764;4.332;2023-04-24T01:55:09;8.20;99.90
25582;DHT22;13462;50.764;4.332;2023-04-24T01:57:35;8.20;99.90
25582;DHT22;13462;50.764;4.332;2023-04-24T02:00:00;8.20;99.90
25582;DHT22;13462;50.764;4.332;2023-04-24T02:02:26;8.20;99.90
25582;DHT22;13462;50.764;4.332;2023-04-24T02:04:55;8.20;99.90
25582;DHT22;13462;50.764;4.332;2023-04-24T02:07:20;8.10;99.90
25582;DHT22;13462;50.764;4.332;2023-04-24T02:09:46;8.20;99.90
25582;DHT22;13462;50.764;4.332;2023-04-24T02:12:11;8.30;99.90
25582;DHT22;13462;50.764;4.332;2023-04-24T02:14:37;8.20;99.90
25582;DHT22;13462;50.764;4.332;2023-04-24T02:17:02;8.20;99.90
25582;DHT22;13462;50.764;4.332;2023-04-24T02:19:28;8.20;99.90
25582;DHT22;13462;50.764;4.332;2023-04-24T02:21:54;8.30;99.90
25582;DHT22;13462;50.764;4.332;2023-04-24T02:24:19;8.20;99.90
25582;DHT22;13462;50.764;4.332;2023-04-24T02:26:45;8.20;99.90
25582;DHT22;13462;50.764;4.332;2023-04-24T02:29:10;8.20;99.90
25582;DHT22;13462;50.764;4.332;2023-04-24T02:31:36;8.20;99.90
25582;DHT22;13462;50.764;4.332;2023-04-24T02:34:01;8.20;99.90
25582;DHT22;13462;50.764;4.332;2023-04-24T02:36:27;8.30;99.90
25582;DHT22;13462;50.764;4.332;2023-04-24T02:38:52;8.30;99.90
25582;DHT22;13462;50.764;4.332;2023-04-24T02:41:18;8.30;99.90
25582;DHT22;13462;50.764;4.332;2023-04-24T02:43:43;8.30;99.90
25582;DHT22;13462;50.764;4.332;2023-04-24T02:46:09;8.30;99.90
25582;DHT22;13462;50.764;4.332;2023-04-24T02:48:35;8.30;99.90
25582;DHT22;13462;50.764;4.332;2023-04-24T02:51:00;8.20;99.90
25582;DHT22;13462;50.764;4.332;2023-04-24T02:53:26;8.20;99.90
25582;DHT22;13462;50.764;4.332;2023-04-24T02:55:51;8.30;99.90
25582;DHT22;13462;50.764;4.332;2023-04-24T02:58:17;8.20;99.90
25582;DHT22;13462;50.764;4.332;2023-04-24T03:00:45;8.20;99.90
25582;DHT22;13462;50.764;4.332;2023-04-24T03:03:10;8.20;99.90
25582;DHT22;13462;50.764;4.332;2023-04-24T03:05:36;8.20;99.90
25582;DHT22;13462;50.764;4.332;2023-04-24T03:08:01;8.20;99.90
25582;DHT22;13462;50.764;4.332;2023-04-24T03:10:27;8.20;99.90
25582;DHT22;13462;50.764;4.332;2023-04-24T03:12:52;8.20;99.90
25582;DHT22;13462;50.764;4.332;2023-04-24T03:15:20;8.20;99.90
25582;DHT22;13462;50.764;4.332;2023-04-24T03:17:45;8.20;99.90
25582;DHT22;13462;50.764;4.332;2023-04-24T03:20:11;8.20;99.90
25582;DHT22;13462;50.764;4.332;2023-04-24T03:22:36;8.10;99.90
25582;DHT22;13462;50.764;4.332;2023-04-24T03:25:02;8.10;99.90
25582;DHT22;13462;50.764;4.332;2023-04-24T03:27:27;8.10;99.90
25582;DHT22;13462;50.764;4.332;2023-04-24T03:29:53;8.10;99.90
25582;DHT22;13462;50.764;4.332;2023-04-24T03:32:21;8.10;99.90
25582;DHT22;13462;50.764;4.332;2023-04-24T03:34:48;8.10;99.90
25582;DHT22;13462;50.764;4.332;2023-04-24T03:37:13;8.20;99.90
25582;DHT22;13462;50.764;4.332;2023-04-24T03:39:39;8.20;99.90
25582;DHT22;13462;50.764;4.332;2023-04-24T03:42:04;8.20;99.90
25582;DHT22;13462;50.764;4.332;2023-04-24T03:44:30;8.10;99.90
25582;DHT22;13462;50.764;4.332;2023-04-24T03:46:55;8.20;99.90
25582;DHT22;13462;50.764;4.332;2023-04-24T03:49:21;8.20;99.90
25582;DHT22;13462;50.764;4.332;2023-04-24T03:51:47;8.30;99.90
25582;DHT22;13462;50.764;4.332;2023-04-24T03:54:12;8.20;99.90
25582;DHT22;13462;50.764;4.332;2023-04-24T03:56:38;8.30;99.90
25582;DHT22;13462;50.764;4.332;2023-04-24T03:59:04;8.30;99.90
25582;DHT22;13462;50.764;4.332;2023-04-24T04:01:29;8.40;99.90
25582;DHT22;13462;50.764;4.332;2023-04-24T04:03:56;8.40;99.90
25582;DHT22;13462;50.764;4.332;2023-04-24T04:06:21;8.50;99.90
25582;DHT22;13462;50.764;4.332;2023-04-24T04:08:47;8.50;99.90
25582;DHT22;13462;50.764;4.332;2023-04-24T04:11:12;8.40;99.90
25582;DHT22;13462;50.764;4.332;2023-04-24T04:13:38;8.40;99.90
25582;DHT22;13462;50.764;4.332;2023-04-24T04:16:04;8.40;99.90
25582;DHT22;13462;50.764;4.332;2023-04-24T04:18:29;8.40;99.90
25582;DHT22;13462;50.764;4.332;2023-04-24T04:20:55;8.60;99.90
25582;DHT22;13462;50.764;4.332;2023-04-24T04:23:22;8.60;99.90
25582;DHT22;13462;50.764;4.332;2023-04-24T04:25:47;8.70;99.90
25582;DHT22;13462;50.764;4.332;2023-04-24T04:28:13;8.80;99.90
25582;DHT22;13462;50.764;4.332;2023-04-24T04:30:38;8.80;99.90
25582;DHT22;13462;50.764;4.332;2023-04-24T04:33:05;8.70;99.90
25582;DHT22;13462;50.764;4.332;2023-04-24T04:35:30;8.70;99.90
25582;DHT22;13462;50.764;4.332;2023-04-24T04:37:56;8.70;99.90
25582;DHT22;13462;50.764;4.332;2023-04-24T04:40:24;8.70;99.90
25582;DHT22;13462;50.764;4.332;2023-04-24T04:42:50;8.70;99.90
25582;DHT22;13462;50.764;4.332;2023-04-24T04:45:17;8.70;99.90
25582;DHT22;13462;50.764;4.332;2023-04-24T04:47:43;8.70;99.90
25582;DHT22;13462;50.764;4.332;2023-04-24T04:50:09;8.70;99.90
25582;DHT22;13462;50.764;4.332;2023-04-24T04:52:35;8.60;99.90
25582;DHT22;13462;50.764;4.332;2023-04-24T04:55:01;8.60;99.90
25582;DHT22;13462;50.764;4.332;2023-04-24T04:57:27;8.60;99.90
25582;DHT22;13462;50.764;4.332;2023-04-24T04:59:52;8.60;99.90
25582;DHT22;13462;50.764;4.332;2023-04-24T05:02:18;8.50;99.90
25582;DHT22;13462;50.764;4.332;2023-04-24T05:04:43;8.60;99.90
25582;DHT22;13462;50.764;4.332;2023-04-24T05:07:10;8.60;99.90
25582;DHT22;13462;50.764;4.332;2023-04-24T05:09:36;8.60;99.90
25582;DHT22;13462;50.764;4.332;2023-04-24T05:12:01;8.50;99.90
25582;DHT22;13462;50.764;4.332;2023-04-24T05:14:27;8.60;99.90
25582;DHT22;13462;50.764;4.332;2023-04-24T05:16:52;8.60;99.90
25582;DHT22;13462;50.764;4.332;2023-04-24T05:19:18;8.60;99.90
25582;DHT22;13462;50.764;4.332;2023-04-24T05:21:43;8.70;99.90
25582;DHT22;13462;50.764;4.332;2023-04-24T05:24:09;8.60;99.90
25582;DHT22;13462;50.764;4.332;2023-04-24T05:26:35;8.60;99.90
25582;DHT22;13462;50.764;4.332;2023-04-24T05:29:01;8.60;99.90
25582;DHT22;13462;50.764;4.332;2023-04-24T05:31:26;8.70;99.90
25582;DHT22;13462;50.764;4.332;2023-04-24T05:33:52;8.70;99.90
25582;DHT22;13462;50.764;4.332;2023-04-24T05:36:17;8.70;99.90
25582;DHT22;13462;50.764;4.332;2023-04-24T05:38:43;8.60;99.90
25582;DHT22;13462;50.764;4.332;2023-04-24T05:41:08;8.60;99.90
25582;DHT22;13462;50.764;4.332;2023-04-24T05:43:34;8.50;99.90
25582;DHT22;13462;50.764;4.332;2023-04-24T05:45:59;8.60;99.90
25582;DHT22;13462;50.764;4.332;2023-04-24T05:48:25;8.50;99.90
25582;DHT22;13462;50.764;4.332;2023-04-24T05:50:51;8.50;99.90
25582;DHT22;13462;50.764;4.332;2023-04-24T05:53:18;8.50;99.90
25582;DHT22;13462;50.764;4.332;2023-04-24T05:55:43;8.40;99.90
25582;DHT22;13462;50.764;4.332;2023-04-24T05:58:09;8.50;99.90
25582;DHT22;13462;50.764;4.332;2023-04-24T06:00:34;8.40;99.90
25582;DHT22;13462;50.764;4.332;2023-04-24T06:03:00;8.50;99.90
25582;DHT22;13462;50.764;4.332;2023-04-24T06:05:26;8.50;99.90
25582;DHT22;13462;50.764;4.332;2023-04-24T06:07:51;8.40;99.90
25582;DHT22;13462;50.764;4.332;2023-04-24T06:10:17;8.50;99.90
25582;DHT22;13462;50.764;4.332;2023-04-24T06:12:43;8.50;99.90
25582;DHT22;13462;50.764;4.332;2023-04-24T06:15:08;8.50;99.90
25582;DHT22;13462;50.764;4.332;2023-04-24T06:17:34;8.30;99.90
25582;DHT22;13462;50.764;4.332;2023-04-24T06:19:59;8.30;99.90
25582;DHT22;13462;50.764;4.332;2023-04-24T06:22:25;8.40;99.90
25582;DHT22;13462;50.764;4.332;2023-04-24T06:24:50;8.50;99.90
25582;DHT22;13462;50.764;4.332;2023-04-24T06:27:16;8.40;99.90
25582;DHT22;13462;50.764;4.332;2023-04-24T06:29:41;8.30;99.90
25582;DHT22;13462;50.764;4.332;2023-04-24T06:32:07;8.30;99.90
25582;DHT22;13462;50.764;4.332;2023-04-24T06:34:33;8.40;99.90
25582;DHT22;13462;50.764;4.332;2023-04-24T06:36:59;8.30;99.90
25582;DHT22;13462;50.764;4.332;2023-04-24T06:39:25;8.30;99.90
25582;DHT22;13462;50.764;4.332;2023-04-24T06:41:50;8.30;99.90
25582;DHT22;13462;50.764;4.332;2023-04-24T06:44:16;8.20;99.90
25582;DHT22;13462;50.764;4.332;2023-04-24T06:46:42;8.30;99.90
25582;DHT22;13462;50.764;4.332;2023-04-24T06:49:07;8.30;99.90
25582;DHT22;13462;50.764;4.332;2023-04-24T06:51:33;8.40;99.90
25582;DHT22;13462;50.764;4.332;2023-04-24T06:53:58;8.50;99.90
25582;DHT22;13462;50.764;4.332;2023-04-24T06:56:24;8.50;99.90
25582;DHT22;13462;50.764;4.332;2023-04-24T06:58:50;8.60;99.90
25582;DHT22;13462;50.764;4.332;2023-04-24T07:01:16;8.60;99.90
25582;DHT22;13462;50.764;4.332;2023-04-24T07:03:41;8.60;99.90
25582;DHT22;13462;50.764;4.332;2023-04-24T07:06:07;8.70;99.90
25582;DHT22;13462;50.764;4.332;2023-04-24T07:08:33;8.80;99.90
25582;DHT22;13462;50.764;4.332;2023-04-24T07:10:58;8.90;99.90
25582;DHT22;13462;50.764;4.332;2023-04-24T07:13:24;8.90;99.90
25582;DHT22;13462;50.764;4.332;2023-04-24T07:15:50;9.00;99.90
25582;DHT22;13462;50.764;4.332;2023-04-24T07:18:17;9.10;99.90
25582;DHT22;13462;50.764;4.332;2023-04-24T07:20:43;9.20;99.90
25582;DHT22;13462;50.764;4.332;2023-04-24T07:23:08;9.20;99.90
25582;DHT22;13462;50.764;4.332;2023-04-24T07:25:34;9.10;99.90
25582;DHT22;13462;50.764;4.332;2023-04-24T07:28:00;9.10;99.90
25582;DHT22;13462;50.764;4.332;2023-04-24T07:30:25;9.10;99.90
25582;DHT22;13462;50.764;4.332;2023-04-24T07:32:51;9.20;99.90
25582;DHT22;13462;50.764;4.332;2023-04-24T07:35:16;9.20;99.90
25582;DHT22;13462;50.764;4.332;2023-04-24T07:37:42;9.20;99.90
25582;DHT22;13462;50.764;4.332;2023-04-24T07:40:11;9.00;99.90
25582;DHT22;13462;50.764;4.332;2023-04-24T07:42:37;9.00;99.90
25582;DHT22;13462;50.764;4.332;2023-04-24T07:45:03;9.00;99.90
25582;DHT22;13462;50.764;4.332;2023-04-24T07:47:29;9.10;99.90
25582;DHT22;13462;50.764;4.332;2023-04-24T07:49:54;9.10;99.90
25582;DHT22;13462;50.764;4.332;2023-04-24T07:52:20;9.20;99.90
25582;DHT22;13462;50.764;4.332;2023-04-24T07:54:45;9.30;99.90
25582;DHT22;13462;50.764;4.332;2023-04-24T07:57:11;9.50;99.90
25582;DHT22;13462;50.764;4.332;2023-04-24T07:59:36;9.70;99.90
25582;DHT22;13462;50.764;4.332;2023-04-24T08:02:02;9.70;99.90
25582;DHT22;13462;50.764;4.332;2023-04-24T08:04:27;9.60;99.90
25582;DHT22;13462;50.764;4.332;2023-04-24T08:06:53;9.80;99.90
25582;DHT22;13462;50.764;4.332;2023-04-24T08:09:19;10.00;99.90
25582;DHT22;13462;50.764;4.332;2023-04-24T08:11:44;10.00;99.90
25582;DHT22;13462;50.764;4.332;2023-04-24T08:14:10;10.20;99.90
25582;DHT22;13462;50.764;4.332;2023-04-24T08:16:37;10.40;99.90
25582;DHT22;13462;50.764;4.332;2023-04-24T08:19:03;10.50;99.90
25582;DHT22;13462;50.764;4.332;2023-04-24T08:21:28;10.70;99.90
25582;DHT22;13462;50.764;4.332;2023-04-24T08:23:54;10.80;99.90
25582;DHT22;13462;50.764;4.332;2023-04-24T08:26:19;10.90;99.90
25582;DHT22;13462;50.764;4.332;2023-04-24T08:28:45;11.20;99.90
25582;DHT22;13462;50.764;4.332;2023-04-24T08:31:11;11.20;99.90
25582;DHT22;13462;50.764;4.332;2023-04-24T08:33:36;11.20;99.90
25582;DHT22;13462;50.764;4.332;2023-04-24T08:36:03;11.20;99.90
25582;DHT22;13462;50.764;4.332;2023-04-24T08:38:28;11.20;99.90
25582;DHT22;13462;50.764;4.332;2023-04-24T08:40:54;11.50;99.90
25582;DHT22;13462;50.764;4.332;2023-04-24T08:43:21;12.20;99.90
25582;DHT22;13462;50.764;4.332;2023-04-24T08:45:47;12.70;99.90
25582;DHT22;13462;50.764;4.332;2023-04-24T08:48:12;13.00;99.90
25582;DHT22;13462;50.764;4.332;2023-04-24T08:50:38;12.90;99.90
25582;DHT22;13462;50.764;4.332;2023-04-24T08:53:06;12.60;99.90
25582;DHT22;13462;50.764;4.332;2023-04-24T08:55:32;12.30;99.90
25582;DHT22;13462;50.764;4.332;2023-04-24T08:57:59;12.20;99.90
25582;DHT22;13462;50.764;4.332;2023-04-24T09:00:26;12.50;99.90
25582;DHT22;13462;50.764;4.332;2023-04-24T09:02:52;13.40;99.90
25582;DHT22;13462;50.764;4.332;2023-04-24T09:05:18;14.90;99.90
25582;DHT22;13462;50.764;4.332;2023-04-24T09:07:47;16.40;99.90
25582;DHT22;13462;50.764;4.332;2023-04-24T09:10:14;18.10;99.90
25582;DHT22;13462;50.764;4.332;2023-04-24T09:12:40;18.20;99.90
25582;DHT22;13462;50.764;4.332;2023-04-24T09:15:06;17.90;99.90
25582;DHT22;13462;50.764;4.332;2023-04-24T09:17:33;16.50;99.90
25582;DHT22;13462;50.764;4.332;2023-04-24T09:19:58;15.80;99.90
25582;DHT22;13462;50.764;4.332;2023-04-24T09:22:24;14.90;99.90
25582;DHT22;13462;50.764;4.332;2023-04-24T09:24:59;14.00;99.90
25582;DHT22;13462;50.764;4.332;2023-04-24T09:27:24;13.10;99.90
25582;DHT22;13462;50.764;4.332;2023-04-24T09:29:53;12.40;99.90
25582;DHT22;13462;50.764;4.332;2023-04-24T09:32:20;12.40;99.90
25582;DHT22;13462;50.764;4.332;2023-04-24T09:34:47;13.00;99.90
25582;DHT22;13462;50.764;4.332;2023-04-24T09:37:26;14.70;99.90
25582;DHT22;13462;50.764;4.332;2023-04-24T09:42:53;13.40;99.90
25582;DHT22;13462;50.764;4.332;2023-04-24T09:45:19;12.90;99.90
25582;DHT22;13462;50.764;4.332;2023-04-24T09:47:45;12.60;99.90
25582;DHT22;13462;50.764;4.332;2023-04-24T09:52:39;12.70;99.90
25582;DHT22;13462;50.764;4.332;2023-04-24T09:55:10;12.60;99.90
25582;DHT22;13462;50.764;4.332;2023-04-24T09:57:35;12.60;99.90
25582;DHT22;13462;50.764;4.332;2023-04-24T10:00:01;12.30;99.90
25582;DHT22;13462;50.764;4.332;2023-04-24T10:02:27;12.40;99.90
25582;DHT22;13462;50.764;4.332;2023-04-24T10:04:57;13.00;99.90
25582;DHT22;13462;50.764;4.332;2023-04-24T10:07:27;13.10;99.90
25582;DHT22;13462;50.764;4.332;2023-04-24T10:09:53;13.30;99.90
25582;DHT22;13462;50.764;4.332;2023-04-24T10:12:18;13.10;99.90
25582;DHT22;13462;50.764;4.332;2023-04-24T10:14:45;13.10;99.90
25582;DHT22;13462;50.764;4.332;2023-04-24T10:17:11;13.10;99.90
25582;DHT22;13462;50.764;4.332;2023-04-24T10:19:37;13.20;99.90
25582;DHT22;13462;50.764;4.332;2023-04-24T10:22:03;13.00;99.90
25582;DHT22;13462;50.764;4.332;2023-04-24T10:24:28;13.00;99.90
25582;DHT22;13462;50.764;4.332;2023-04-24T10:26:54;12.80;99.90
25582;DHT22;13462;50.764;4.332;2023-04-24T10:29:20;13.10;99.90
25582;DHT22;13462;50.764;4.332;2023-04-24T10:31:46;13.10;99.90
25582;DHT22;13462;50.764;4.332;2023-04-24T10:34:12;13.20;99.90
25582;DHT22;13462;50.764;4.332;2023-04-24T10:36:38;13.50;99.90
25582;DHT22;13462;50.764;4.332;2023-04-24T10:39:06;13.70;99.90
25582;DHT22;13462;50.764;4.332;2023-04-24T10:41:33;13.80;99.90
25582;DHT22;13462;50.764;4.332;2023-04-24T10:44:05;13.50;99.90
25582;DHT22;13462;50.764;4.332;2023-04-24T10:46:32;12.80;99.90
25582;DHT22;13462;50.764;4.332;2023-04-24T10:48:57;12.70;99.90
25582;DHT22;13462;50.764;4.332;2023-04-24T10:51:23;12.50;99.90
25582;DHT22;13462;50.764;4.332;2023-04-24T10:53:50;12.40;99.90
25582;DHT22;13462;50.764;4.332;2023-04-24T10:56:16;12.50;99.90
25582;DHT22;13462;50.764;4.332;2023-04-24T10:58:43;12.50;99.90
25582;DHT22;13462;50.764;4.332;2023-04-24T11:01:23;12.60;99.90
25582;DHT22;13462;50.764;4.332;2023-04-24T11:03:54;12.90;99.90
25582;DHT22;13462;50.764;4.332;2023-04-24T11:06:28;13.30;99.90
25582;DHT22;13462;50.764;4.332;2023-04-24T11:08:58;13.50;99.90
25582;DHT22;13462;50.764;4.332;2023-04-24T11:11:28;13.50;99.90
25582;DHT22;13462;50.764;4.332;2023-04-24T11:16:33;13.40;99.90
25582;DHT22;13462;50.764;4.332;2023-04-24T11:21:43;13.40;99.90
25582;DHT22;13462;50.764;4.332;2023-04-24T11:26:51;13.10;99.90
25582;DHT22;13462;50.764;4.332;2023-04-24T11:29:16;12.90;99.90
25582;DHT22;13462;50.764;4.332;2023-04-24T11:31:44;12.80;99.90
25582;DHT22;13462;50.764;4.332;2023-04-24T11:34:15;12.90;99.90
25582;DHT22;13462;50.764;4.332;2023-04-24T11:36:50;13.20;99.90
25582;DHT22;13462;50.764;4.332;2023-04-24T11:39:16;13.70;99.90
25582;DHT22;13462;50.764;4.332;2023-04-24T11:41:41;13.80;99.90
25582;DHT22;13462;50.764;4.332;2023-04-24T11:44:08;13.80;99.90
25582;DHT22;13462;50.764;4.332;2023-04-24T11:46:33;13.90;99.90
25582;DHT22;13462;50.764;4.332;2023-04-24T11:48:59;14.00;99.90
25582;DHT22;13462;50.764;4.332;2023-04-24T11:51:25;14.40;99.90
25582;DHT22;13462;50.764;4.332;2023-04-24T11:53:52;15.10;99.90
25582;DHT22;13462;50.764;4.332;2023-04-24T11:56:18;15.40;99.90
25582;DHT22;13462;50.764;4.332;2023-04-24T11:58:45;16.40;99.90
25582;DHT22;13462;50.764;4.332;2023-04-24T12:01:11;17.20;99.90
25582;DHT22;13462;50.764;4.332;2023-04-24T12:03:36;17.60;99.90
25582;DHT22;13462;50.764;4.332;2023-04-24T12:06:05;17.70;99.80
25582;DHT22;13462;50.764;4.332;2023-04-24T12:08:33;17.40;99.90
25582;DHT22;13462;50.764;4.332;2023-04-24T12:10:59;17.30;99.90
25582;DHT22;13462;50.764;4.332;2023-04-24T12:13:25;17.80;99.90
25582;DHT22;13462;50.764;4.332;2023-04-24T12:15:50;18.30;99.90
25582;DHT22;13462;50.764;4.332;2023-04-24T12:18:16;19.20;99.80
25582;DHT22;13462;50.764;4.332;2023-04-24T12:20:42;20.20;97.90
25582;DHT22;13462;50.764;4.332;2023-04-24T12:23:07;20.90;95.70
25582;DHT22;13462;50.764;4.332;2023-04-24T12:25:33;20.20;93.70
25582;DHT22;13462;50.764;4.332;2023-04-24T12:30:28;21.10;93.00
25582;DHT22;13462;50.764;4.332;2023-04-24T12:32:55;20.40;93.40
25582;DHT22;13462;50.764;4.332;2023-04-24T12:35:22;20.90;93.90
25582;DHT22;13462;50.764;4.332;2023-04-24T12:37:48;20.80;92.90
25582;DHT22;13462;50.764;4.332;2023-04-24T12:40:14;21.10;94.60
25582;DHT22;13462;50.764;4.332;2023-04-24T12:42:44;21.40;91.70
25582;DHT22;13462;50.764;4.332;2023-04-24T12:45:10;20.70;92.30
25582;DHT22;13462;50.764;4.332;2023-04-24T12:47:37;20.50;90.30
25582;DHT22;13462;50.764;4.332;2023-04-24T12:50:03;19.20;92.00
25582;DHT22;13462;50.764;4.332;2023-04-24T12:52:29;18.60;94.40
25582;DHT22;13462;50.764;4.332;2023-04-24T12:54:56;18.60;95.50
25582;DHT22;13462;50.764;4.332;2023-04-24T12:57:22;18.50;94.00
25582;DHT22;13462;50.764;4.332;2023-04-24T12:59:48;17.90;94.80
25582;DHT22;13462;50.764;4.332;2023-04-24T13:02:13;17.50;95.70
25582;DHT22;13462;50.764;4.332;2023-04-24T13:04:43;17.10;96.10
25582;DHT22;13462;50.764;4.332;2023-04-24T13:07:09;17.40;96.90
25582;DHT22;13462;50.764;4.332;2023-04-24T13:09:34;17.50;95.90
25582;DHT22;13462;50.764;4.332;2023-04-24T13:12:00;18.00;96.70
25582;DHT22;13462;50.764;4.332;2023-04-24T13:14:26;18.00;94.50
25582;DHT22;13462;50.764;4.332;2023-04-24T13:16:52;17.50;95.10
25582;DHT22;13462;50.764;4.332;2023-04-24T13:19:18;16.80;95.50
25582;DHT22;13462;50.764;4.332;2023-04-24T13:21:43;16.50;97.30
25582;DHT22;13462;50.764;4.332;2023-04-24T13:24:09;16.00;96.90
25582;DHT22;13462;50.764;4.332;2023-04-24T13:26:35;15.30;98.10
25582;DHT22;13462;50.764;4.332;2023-04-24T13:29:00;15.00;98.90
25582;DHT22;13462;50.764;4.332;2023-04-24T13:31:26;14.70;99.90
25582;DHT22;13462;50.764;4.332;2023-04-24T13:33:51;14.50;99.90
25582;DHT22;13462;50.764;4.332;2023-04-24T13:36:17;14.50;99.90
25582;DHT22;13462;50.764;4.332;2023-04-24T13:38:43;14.70;99.90
25582;DHT22;13462;50.764;4.332;2023-04-24T13:41:09;14.80;99.90
25582;DHT22;13462;50.764;4.332;2023-04-24T13:43:35;14.90;99.90
25582;DHT22;13462;50.764;4.332;2023-04-24T13:46:00;14.90;99.90
25582;DHT22;13462;50.764;4.332;2023-04-24T13:48:28;14.70;99.90
25582;DHT22;13462;50.764;4.332;2023-04-24T13:50:54;14.70;99.90
25582;DHT22;13462;50.764;4.332;2023-04-24T13:53:19;14.70;99.90
25582;DHT22;13462;50.764;4.332;2023-04-24T13:55:45;14.80;99.90
25582;DHT22;13462;50.764;4.332;2023-04-24T13:58:10;14.60;99.90
25582;DHT22;13462;50.764;4.332;2023-04-24T14:00:36;14.40;99.90
25582;DHT22;13462;50.764;4.332;2023-04-24T14:03:01;14.40;99.90
25582;DHT22;13462;50.764;4.332;2023-04-24T14:05:27;14.10;99.90
25582;DHT22;13462;50.764;4.332;2023-04-24T14:07:52;14.00;99.90
25582;DHT22;13462;50.764;4.332;2023-04-24T14:10:18;13.90;99.90
25582;DHT22;13462;50.764;4.332;2023-04-24T14:12:43;14.00;99.90
25582;DHT22;13462;50.764;4.332;2023-04-24T14:15:09;14.10;99.90
25582;DHT22;13462;50.764;4.332;2023-04-24T14:17:35;14.20;99.90
25582;DHT22;13462;50.764;4.332;2023-04-24T14:20:01;14.30;99.90
25582;DHT22;13462;50.764;4.332;2023-04-24T14:22:27;14.30;99.90
25582;DHT22;13462;50.764;4.332;2023-04-24T14:24:52;14.20;99.90
25582;DHT22;13462;50.764;4.332;2023-04-24T14:27:18;14.00;99.90
25582;DHT22;13462;50.764;4.332;2023-04-24T14:29:43;13.70;99.90
25582;DHT22;13462;50.764;4.332;2023-04-24T14:32:10;13.60;99.90
25582;DHT22;13462;50.764;4.332;2023-04-24T14:34:36;13.50;99.90
25582;DHT22;13462;50.764;4.332;2023-04-24T14:37:01;13.60;99.90
25582;DHT22;13462;50.764;4.332;2023-04-24T14:39:27;13.50;99.90
25582;DHT22;13462;50.764;4.332;2023-04-24T14:41:53;13.50;99.90
25582;DHT22;13462;50.764;4.332;2023-04-24T14:44:19;13.30;99.90
25582;DHT22;13462;50.764;4.332;2023-04-24T14:46:44;13.30;99.90
25582;DHT22;13462;50.764;4.332;2023-04-24T14:49:10;13.40;99.90
25582;DHT22;13462;50.764;4.332;2023-04-24T14:51:36;13.60;99.90
25582;DHT22;13462;50.764;4.332;2023-04-24T14:54:02;13.70;99.90
25582;DHT22;13462;50.764;4.332;2023-04-24T14:56:28;13.90;99.90
25582;DHT22;13462;50.764;4.332;2023-04-24T14:58:54;14.10;99.90
25582;DHT22;13462;50.764;4.332;2023-04-24T15:01:20;14.10;99.90
25582;DHT22;13462;50.764;4.332;2023-04-24T15:03:45;14.10;99.90
25582;DHT22;13462;50.764;4.332;2023-04-24T15:06:11;14.20;99.90
25582;DHT22;13462;50.764;4.332;2023-04-24T15:08:36;14.10;99.90
25582;DHT22;13462;50.764;4.332;2023-04-24T15:11:02;13.80;99.90
25582;DHT22;13462;50.764;4.332;2023-04-24T15:13:27;13.60;99.90
25582;DHT22;13462;50.764;4.332;2023-04-24T15:15:53;13.60;99.90
25582;DHT22;13462;50.764;4.332;2023-04-24T15:18:18;13.50;99.90
25582;DHT22;13462;50.764;4.332;2023-04-24T15:20:44;13.50;99.90
25582;DHT22;13462;50.764;4.332;2023-04-24T15:23:10;13.50;99.90
25582;DHT22;13462;50.764;4.332;2023-04-24T15:25:36;13.60;99.90
25582;DHT22;13462;50.764;4.332;2023-04-24T15:28:01;13.70;99.90
25582;DHT22;13462;50.764;4.332;2023-04-24T15:30:27;13.70;99.90
25582;DHT22;13462;50.764;4.332;2023-04-24T15:32:52;13.70;99.90
25582;DHT22;13462;50.764;4.332;2023-04-24T15:35:18;13.60;99.90
25582;DHT22;13462;50.764;4.332;2023-04-24T15:37:44;13.50;99.90
25582;DHT22;13462;50.764;4.332;2023-04-24T15:40:10;13.10;99.90
25582;DHT22;13462;50.764;4.332;2023-04-24T15:42:38;13.00;99.90
25582;DHT22;13462;50.764;4.332;2023-04-24T15:45:04;13.00;99.90
25582;DHT22;13462;50.764;4.332;2023-04-24T15:47:30;13.20;99.90